Tacoma, WA

5:40 PM PDT on March 28, 2017 (GMT -0700)
McChord Air Force Base

Weather History for KTCM - September, 2013

Change the Weather History Date:

Monday, September 23, 2013

  Actual Average Record
Temperature  
Mean Temperature 54 °F -  
Max Temperature 59 °F 67 °F 86 °F (1957)
Min Temperature 49 °F 44 °F 30 °F (2000)
Degree Days  
Heating Degree Days 11    
Growing Degree Days 4 (Base 50)    
Moisture  
Dew Point 54 °F    
Average Humidity 92    
Maximum Humidity 100    
Minimum Humidity 77    
Precipitation  
Precipitation 0.14 in - - ()
Sea Level Pressure  
Sea Level Pressure 29.90 in    
Wind  
Wind Speed 7 mph (SSW)    
Max Wind Speed 12 mph    
Max Gust Speed -    
Visibility 9 miles    
Events Rain    
Averages and records for this station are not official NWS values.
T = Trace of Precipitation, MM = Missing Value Source: NWS Daily Summary

Daily Weather History Graph

Daily Weather History Graph

Search for Another Location

Airport or City:

Trip Planner

Search our weather history database for the weather conditions in past years. The results will help you decide how hot, cold, wet, or windy it might be!

Date:

Astronomy

Sep. 23, 2013 Rise Set
Actual Time 6:58 AM PDT 7:04 PM PDT
Civil Twilight 6:28 AM PDT 7:35 PM PDT
Nautical Twilight 5:52 AM PDT 8:10 PM PDT
Astronomical Twilight 5:15 AM PDT 8:47 PM PDT
Moon 9:21 PM PDT (9/23) 11:41 AM PDT (9/23)
Length of Visible Light 13h 07m
Length of Day
12h 06m
Waning Gibbous, 80% of the Moon is Illuminated
Sep 23
Waning Gibbous
Sep 26
Last Quarter
Oct 4
New
Oct 11
First Quarter
Oct 18
Full

Hourly Weather History & Observations

Time (PDT) Temp. Dew Point Humidity Pressure Visibility Wind Dir Wind Speed Gust Speed Precip Events Conditions
12:18 AM 55.4 °F 53.6 °F 94% 29.78 in 10.0 mi South 8.1 mph - N/A   Overcast
12:29 AM 55.4 °F 53.6 °F 94% 29.79 in 10.0 mi SW 5.8 mph - N/A Rain Light Rain
12:39 AM 55.4 °F 53.6 °F 94% 29.80 in 10.0 mi West 5.8 mph - N/A   Overcast
12:45 AM 55.4 °F 53.6 °F 94% 29.80 in 10.0 mi WSW 4.6 mph - N/A Rain Light Rain
12:47 AM 55.4 °F 53.6 °F 94% 29.80 in 8.0 mi WSW 6.9 mph - N/A Rain Light Rain
12:58 AM 55.2 °F 53.4 °F 94% 29.81 in 4.0 mi South 10.4 mph - 0.04 in Rain Light Rain
1:08 AM 55.4 °F 53.6 °F 94% 29.80 in 10.0 mi South 8.1 mph - N/A Rain Light Rain
1:09 AM 55.4 °F 53.6 °F 94% 29.80 in 10.0 mi South 9.2 mph - N/A   Mostly Cloudy
1:58 AM 53.8 °F 53.2 °F 98% 29.81 in 10.0 mi South 8.1 mph - 0.00 in   Overcast
2:58 AM 54.3 °F 53.4 °F 97% 29.83 in 10.0 mi South 5.8 mph - 0.01 in   Overcast
2:59 AM 53.6 °F 53.6 °F 100% 29.82 in 10.0 mi South 5.8 mph - N/A Rain Light Rain
3:16 AM 53.6 °F 53.6 °F 100% 29.82 in 10.0 mi SSW 4.6 mph - N/A   Overcast
3:52 AM 53.6 °F 53.6 °F 100% 29.83 in 10.0 mi SW 3.5 mph - N/A Rain Light Rain
3:58 AM 54.3 °F 52.9 °F 95% 29.84 in 10.0 mi SW 3.5 mph - 0.00 in Rain Light Rain
4:17 AM 53.6 °F 53.6 °F 100% 29.84 in 10.0 mi South 5.8 mph - N/A   Overcast
4:22 AM 53.6 °F 53.6 °F 100% 29.83 in 10.0 mi South 8.1 mph - N/A   Overcast
4:27 AM 53.6 °F 53.6 °F 100% 29.83 in 10.0 mi South 6.9 mph - N/A   Overcast
4:58 AM 53.8 °F 52.7 °F 96% 29.85 in 10.0 mi South 6.9 mph - 0.00 in   Overcast
5:58 AM 53.4 °F 52.2 °F 95% 29.86 in 10.0 mi South 6.9 mph - N/A   Overcast
6:58 AM 53.2 °F 51.3 °F 93% 29.86 in 10.0 mi South 8.1 mph - N/A   Mostly Cloudy
7:58 AM 54.1 °F 51.3 °F 90% 29.88 in 10.0 mi South 6.9 mph - N/A   Overcast
8:58 AM 55.8 °F 52.2 °F 88% 29.89 in 10.0 mi South 8.1 mph - N/A   Overcast
9:56 AM 59.0 °F 51.8 °F 77% 29.90 in 10.0 mi South 10.4 mph - N/A   Overcast
10:02 AM 59.0 °F 51.8 °F 77% 29.90 in 10.0 mi South 11.5 mph - N/A Rain Light Rain
10:09 AM 57.2 °F 51.8 °F 82% 29.91 in 10.0 mi South 11.5 mph - N/A Rain Light Rain
10:15 AM 59.0 °F 51.8 °F 77% 29.91 in 10.0 mi South 11.5 mph - N/A   Overcast
10:18 AM 59.0 °F 51.8 °F 77% 29.91 in 10.0 mi South 9.2 mph - N/A Rain Light Rain
10:38 AM 57.2 °F 51.8 °F 82% 29.91 in 10.0 mi West 5.8 mph - N/A   Overcast
10:40 AM 57.2 °F 51.8 °F 82% 29.91 in 10.0 mi WSW 3.5 mph - N/A Rain Light Rain
10:44 AM 57.2 °F 53.6 °F 88% 29.91 in 10.0 mi WNW 5.8 mph - N/A Rain Light Rain
10:46 AM 57.2 °F 53.6 °F 88% 29.91 in 10.0 mi WNW 4.6 mph - N/A Rain Light Rain
10:50 AM 57.2 °F 53.6 °F 88% 29.91 in 10.0 mi NW 6.9 mph - N/A Rain Light Rain
10:56 AM 57.2 °F 53.6 °F 88% 29.91 in 7.0 mi West 10.4 mph - N/A Rain Rain
10:57 AM 57.2 °F 53.6 °F 88% 29.92 in 5.0 mi West 10.4 mph - N/A Rain Light Rain
11:23 AM 57.2 °F 53.6 °F 88% 29.92 in 10.0 mi SW 6.9 mph - N/A Rain Light Rain
11:56 AM 57.2 °F 53.6 °F 88% 29.93 in 6.0 mi SSW 8.1 mph - N/A Rain Light Rain
12:10 PM 57.2 °F 53.6 °F 88% 29.93 in 3.0 mi SSW 9.2 mph - N/A Rain Heavy Rain
12:12 PM 57.2 °F 55.4 °F 94% 29.93 in 2.5 mi SSW 8.1 mph - N/A Rain Heavy Rain
12:19 PM 55.4 °F 55.4 °F 100% 29.93 in 3.0 mi SSW 8.1 mph - N/A Rain Light Rain
12:50 PM 57.2 °F 55.4 °F 94% 29.92 in 10.0 mi South 5.8 mph - N/A   Overcast
12:56 PM 57.2 °F 55.4 °F 94% 29.93 in 10.0 mi SSW 8.1 mph - N/A   Overcast
12:59 PM 57.2 °F 55.4 °F 94% 29.93 in 10.0 mi SSW 6.9 mph - N/A Rain Light Rain
1:07 PM 57.2 °F 55.4 °F 94% 29.93 in 10.0 mi SSW 8.1 mph - N/A   Overcast
1:14 PM 57.2 °F 55.4 °F 94% 29.93 in 10.0 mi SSW 6.9 mph - N/A Rain Light Rain
1:24 PM 57.2 °F 55.4 °F 94% 29.93 in 10.0 mi SSW 8.1 mph - N/A   Overcast
1:58 PM 58.3 °F 55.2 °F 90% 29.94 in 10.0 mi South 8.1 mph - 0.00 in   Overcast
2:08 PM 57.2 °F 55.4 °F 94% 29.94 in 10.0 mi SSW 8.1 mph - N/A   Overcast
2:09 PM 57.2 °F 55.4 °F 94% 29.94 in 10.0 mi SSW 6.9 mph - N/A Rain Light Rain
2:13 PM 57.2 °F 55.4 °F 94% 29.94 in 4.0 mi West 8.1 mph - N/A Rain Light Rain
2:18 PM 57.2 °F 53.6 °F 88% 29.94 in 1.5 mi SW 8.1 mph - N/A Rain Rain
2:23 PM 57.2 °F 55.4 °F 94% 29.94 in 1.8 mi SSW 5.8 mph - N/A Rain Light Rain
2:28 PM 57.2 °F 55.4 °F 94% 29.94 in 6.0 mi SSW 6.9 mph - N/A Rain Light Rain
2:32 PM 57.2 °F 55.4 °F 94% 29.94 in 9.0 mi South 8.1 mph - N/A   Overcast
2:44 PM 57.2 °F 55.4 °F 94% 29.94 in 10.0 mi South 10.4 mph - N/A Rain Light Rain
2:58 PM 57.9 °F 55.4 °F 91% 29.96 in 10.0 mi South 8.1 mph - 0.07 in Rain Light Rain
3:09 PM 59.0 °F 57.2 °F 94% 29.94 in 10.0 mi South 9.2 mph - N/A   Mostly Cloudy
3:58 PM 59.0 °F 53.8 °F 83% 29.95 in 10.0 mi South 10.4 mph - 0.00 in   Overcast
4:42 PM 59.0 °F 53.6 °F 82% 29.95 in 10.0 mi SSW 10.4 mph - N/A Rain Light Rain
4:58 PM 58.3 °F 53.2 °F 83% 29.96 in 10.0 mi SW 8.1 mph - 0.00 in Rain Light Rain
5:18 PM 57.2 °F 53.6 °F 88% 29.95 in 10.0 mi SSW 6.9 mph - N/A   Overcast
5:36 PM 57.2 °F 53.6 °F 88% 29.95 in 10.0 mi South 8.1 mph - N/A Rain Light Rain
5:46 PM 57.2 °F 53.6 °F 88% 29.95 in 10.0 mi SSW 5.8 mph - N/A   Overcast
5:58 PM 57.2 °F 54.1 °F 89% 29.96 in 10.0 mi South 8.1 mph - 0.02 in   Overcast
6:58 PM 55.4 °F 53.6 °F 94% 29.97 in 10.0 mi South 6.9 mph - N/A   Overcast
7:58 PM 54.5 °F 53.2 °F 96% 29.99 in 10.0 mi South 6.9 mph - N/A   Overcast
8:58 PM 53.2 °F 52.3 °F 97% 29.99 in 10.0 mi South 6.9 mph - N/A   Overcast
9:58 PM 52.9 °F 51.6 °F 95% 29.98 in 10.0 mi South 4.6 mph - N/A   Mostly Cloudy
10:58 PM 49.6 °F 49.3 °F 99% 29.98 in 10.0 mi South 6.9 mph - N/A   Clear
11:58 PM 49.3 °F 48.9 °F 99% 29.97 in 10.0 mi South 6.9 mph - N/A   Clear